sensor_id;sensor_type;location;lat;lon;timestamp;P1;durP1;ratioP1;P2;durP2;ratioP2
9536;SDS011;4807;48.024;11.726;2022-09-25T00:01:04;3.53;;;3.20;;
9536;SDS011;4807;48.024;11.726;2022-09-25T00:04:13;3.53;;;3.23;;
9536;SDS011;4807;48.024;11.726;2022-09-25T00:07:22;3.47;;;2.97;;
9536;SDS011;4807;48.024;11.726;2022-09-25T00:10:31;3.33;;;3.03;;
9536;SDS011;4807;48.024;11.726;2022-09-25T00:13:42;3.13;;;2.90;;
9536;SDS011;4807;48.024;11.726;2022-09-25T00:16:52;4.33;;;3.30;;
9536;SDS011;4807;48.024;11.726;2022-09-25T00:20:00;3.10;;;2.90;;
9536;SDS011;4807;48.024;11.726;2022-09-25T00:23:09;3.60;;;3.30;;
9536;SDS011;4807;48.024;11.726;2022-09-25T00:26:17;3.30;;;3.00;;
9536;SDS011;4807;48.024;11.726;2022-09-25T00:29:27;3.60;;;3.30;;
9536;SDS011;4807;48.024;11.726;2022-09-25T00:32:36;3.93;;;3.63;;
9536;SDS011;4807;48.024;11.726;2022-09-25T00:35:44;3.00;;;2.37;;
9536;SDS011;4807;48.024;11.726;2022-09-25T00:38:53;3.13;;;2.93;;
9536;SDS011;4807;48.024;11.726;2022-09-25T00:42:01;2.70;;;2.50;;
9536;SDS011;4807;48.024;11.726;2022-09-25T00:45:14;2.80;;;2.60;;
9536;SDS011;4807;48.024;11.726;2022-09-25T00:48:29;3.00;;;2.80;;
9536;SDS011;4807;48.024;11.726;2022-09-25T00:51:39;2.97;;;2.77;;
9536;SDS011;4807;48.024;11.726;2022-09-25T00:55:00;3.40;;;3.10;;
9536;SDS011;4807;48.024;11.726;2022-09-25T00:58:14;2.77;;;2.57;;
9536;SDS011;4807;48.024;11.726;2022-09-25T01:01:28;2.77;;;2.57;;
9536;SDS011;4807;48.024;11.726;2022-09-25T01:04:37;2.70;;;2.50;;
9536;SDS011;4807;48.024;11.726;2022-09-25T01:07:48;2.83;;;2.63;;
9536;SDS011;4807;48.024;11.726;2022-09-25T01:10:59;2.73;;;2.53;;
9536;SDS011;4807;48.024;11.726;2022-09-25T01:14:07;2.30;;;2.10;;
9536;SDS011;4807;48.024;11.726;2022-09-25T01:17:19;3.07;;;2.50;;
9536;SDS011;4807;48.024;11.726;2022-09-25T01:20:42;3.17;;;2.87;;
9536;SDS011;4807;48.024;11.726;2022-09-25T01:24:29;3.20;;;2.77;;
9536;SDS011;4807;48.024;11.726;2022-09-25T01:28:02;3.30;;;3.00;;
9536;SDS011;4807;48.024;11.726;2022-09-25T01:31:35;3.90;;;3.27;;
9536;SDS011;4807;48.024;11.726;2022-09-25T01:34:55;3.30;;;3.00;;
9536;SDS011;4807;48.024;11.726;2022-09-25T01:38:10;2.40;;;2.20;;
9536;SDS011;4807;48.024;11.726;2022-09-25T01:41:29;2.40;;;2.20;;
9536;SDS011;4807;48.024;11.726;2022-09-25T01:44:51;1.70;;;1.60;;
9536;SDS011;4807;48.024;11.726;2022-09-25T01:48:07;1.83;;;1.73;;
9536;SDS011;4807;48.024;11.726;2022-09-25T01:51:20;2.17;;;2.07;;
9536;SDS011;4807;48.024;11.726;2022-09-25T01:54:34;2.50;;;2.30;;
9536;SDS011;4807;48.024;11.726;2022-09-25T01:57:49;2.50;;;2.30;;
9536;SDS011;4807;48.024;11.726;2022-09-25T02:01:07;2.50;;;2.30;;
9536;SDS011;4807;48.024;11.726;2022-09-25T02:04:30;2.67;;;2.47;;
9536;SDS011;4807;48.024;11.726;2022-09-25T02:07:46;2.40;;;2.20;;
9536;SDS011;4807;48.024;11.726;2022-09-25T02:11:02;2.77;;;2.50;;
9536;SDS011;4807;48.024;11.726;2022-09-25T02:14:14;2.30;;;2.10;;
9536;SDS011;4807;48.024;11.726;2022-09-25T02:17:31;2.27;;;2.17;;
9536;SDS011;4807;48.024;11.726;2022-09-25T02:21:11;3.13;;;2.00;;
9536;SDS011;4807;48.024;11.726;2022-09-25T02:24:28;3.33;;;3.03;;
9536;SDS011;4807;48.024;11.726;2022-09-25T02:27:45;2.83;;;2.63;;
9536;SDS011;4807;48.024;11.726;2022-09-25T02:30:55;2.43;;;2.23;;
9536;SDS011;4807;48.024;11.726;2022-09-25T02:34:07;1.80;;;1.70;;
9536;SDS011;4807;48.024;11.726;2022-09-25T02:37:21;4.43;;;1.97;;
9536;SDS011;4807;48.024;11.726;2022-09-25T02:40:32;2.03;;;1.87;;
9536;SDS011;4807;48.024;11.726;2022-09-25T02:43:53;2.03;;;1.77;;
9536;SDS011;4807;48.024;11.726;2022-09-25T02:47:19;2.40;;;2.00;;
9536;SDS011;4807;48.024;11.726;2022-09-25T02:50:43;2.13;;;1.80;;
9536;SDS011;4807;48.024;11.726;2022-09-25T02:54:04;1.63;;;1.53;;
9536;SDS011;4807;48.024;11.726;2022-09-25T02:57:24;1.87;;;1.77;;
9536;SDS011;4807;48.024;11.726;2022-09-25T03:00:43;2.30;;;2.07;;
9536;SDS011;4807;48.024;11.726;2022-09-25T03:03:56;2.00;;;1.90;;
9536;SDS011;4807;48.024;11.726;2022-09-25T03:07:08;2.10;;;2.00;;
9536;SDS011;4807;48.024;11.726;2022-09-25T03:10:18;2.40;;;2.20;;
9536;SDS011;4807;48.024;11.726;2022-09-25T03:13:28;2.20;;;1.90;;
9536;SDS011;4807;48.024;11.726;2022-09-25T03:16:37;2.53;;;1.87;;
9536;SDS011;4807;48.024;11.726;2022-09-25T03:19:52;2.27;;;2.13;;
9536;SDS011;4807;48.024;11.726;2022-09-25T03:23:02;2.53;;;1.97;;
9536;SDS011;4807;48.024;11.726;2022-09-25T03:26:12;3.43;;;2.27;;
9536;SDS011;4807;48.024;11.726;2022-09-25T03:29:20;3.70;;;1.73;;
9536;SDS011;4807;48.024;11.726;2022-09-25T03:32:29;2.57;;;2.30;;
9536;SDS011;4807;48.024;11.726;2022-09-25T03:35:37;2.30;;;2.10;;
9536;SDS011;4807;48.024;11.726;2022-09-25T03:38:46;1.93;;;1.83;;
9536;SDS011;4807;48.024;11.726;2022-09-25T03:41:58;1.73;;;1.63;;
9536;SDS011;4807;48.024;11.726;2022-09-25T03:45:07;2.50;;;1.93;;
9536;SDS011;4807;48.024;11.726;2022-09-25T03:48:16;2.23;;;2.13;;
9536;SDS011;4807;48.024;11.726;2022-09-25T03:51:25;2.53;;;1.87;;
9536;SDS011;4807;48.024;11.726;2022-09-25T03:54:35;1.80;;;1.70;;
9536;SDS011;4807;48.024;11.726;2022-09-25T03:57:45;1.70;;;1.60;;
9536;SDS011;4807;48.024;11.726;2022-09-25T04:00:54;2.00;;;1.90;;
9536;SDS011;4807;48.024;11.726;2022-09-25T04:04:03;2.30;;;1.60;;
9536;SDS011;4807;48.024;11.726;2022-09-25T04:07:11;2.13;;;1.50;;
9536;SDS011;4807;48.024;11.726;2022-09-25T04:10:21;1.60;;;1.50;;
9536;SDS011;4807;48.024;11.726;2022-09-25T04:13:32;3.90;;;1.53;;
9536;SDS011;4807;48.024;11.726;2022-09-25T04:16:42;1.70;;;1.60;;
9536;SDS011;4807;48.024;11.726;2022-09-25T04:19:52;1.77;;;1.57;;
9536;SDS011;4807;48.024;11.726;2022-09-25T04:23:00;1.90;;;1.80;;
9536;SDS011;4807;48.024;11.726;2022-09-25T04:26:08;4.23;;;2.03;;
9536;SDS011;4807;48.024;11.726;2022-09-25T04:29:18;2.57;;;2.30;;
9536;SDS011;4807;48.024;11.726;2022-09-25T04:32:27;1.90;;;1.80;;
9536;SDS011;4807;48.024;11.726;2022-09-25T04:35:53;1.70;;;1.60;;
9536;SDS011;4807;48.024;11.726;2022-09-25T04:39:02;1.67;;;1.57;;
9536;SDS011;4807;48.024;11.726;2022-09-25T04:42:10;1.70;;;1.60;;
9536;SDS011;4807;48.024;11.726;2022-09-25T04:45:20;2.63;;;2.20;;
9536;SDS011;4807;48.024;11.726;2022-09-25T04:48:28;2.90;;;2.27;;
9536;SDS011;4807;48.024;11.726;2022-09-25T04:51:37;1.77;;;1.67;;
9536;SDS011;4807;48.024;11.726;2022-09-25T04:54:46;1.97;;;1.87;;
9536;SDS011;4807;48.024;11.726;2022-09-25T04:57:55;1.70;;;1.60;;
9536;SDS011;4807;48.024;11.726;2022-09-25T05:01:08;1.67;;;1.57;;
9536;SDS011;4807;48.024;11.726;2022-09-25T05:04:16;1.93;;;1.80;;
9536;SDS011;4807;48.024;11.726;2022-09-25T05:07:25;1.70;;;1.60;;
9536;SDS011;4807;48.024;11.726;2022-09-25T05:10:33;1.57;;;1.47;;
9536;SDS011;4807;48.024;11.726;2022-09-25T05:13:47;2.10;;;1.50;;
9536;SDS011;4807;48.024;11.726;2022-09-25T05:16:58;1.57;;;1.47;;
9536;SDS011;4807;48.024;11.726;2022-09-25T05:20:07;2.13;;;1.70;;
9536;SDS011;4807;48.024;11.726;2022-09-25T05:23:16;1.80;;;1.70;;
9536;SDS011;4807;48.024;11.726;2022-09-25T05:26:24;2.93;;;1.80;;
9536;SDS011;4807;48.024;11.726;2022-09-25T05:29:34;1.83;;;1.73;;
9536;SDS011;4807;48.024;11.726;2022-09-25T05:32:49;2.37;;;2.17;;
9536;SDS011;4807;48.024;11.726;2022-09-25T05:35:59;2.67;;;2.00;;
9536;SDS011;4807;48.024;11.726;2022-09-25T05:39:09;2.10;;;1.90;;
9536;SDS011;4807;48.024;11.726;2022-09-25T05:42:19;2.03;;;1.93;;
9536;SDS011;4807;48.024;11.726;2022-09-25T05:45:28;2.60;;;1.80;;
9536;SDS011;4807;48.024;11.726;2022-09-25T05:48:38;2.07;;;1.90;;
9536;SDS011;4807;48.024;11.726;2022-09-25T05:51:46;2.30;;;2.20;;
9536;SDS011;4807;48.024;11.726;2022-09-25T05:54:55;3.07;;;2.80;;
9536;SDS011;4807;48.024;11.726;2022-09-25T05:58:03;5.70;;;2.83;;
9536;SDS011;4807;48.024;11.726;2022-09-25T06:01:11;3.60;;;3.30;;
9536;SDS011;4807;48.024;11.726;2022-09-25T06:04:21;3.50;;;3.20;;
9536;SDS011;4807;48.024;11.726;2022-09-25T06:07:30;5.30;;;3.47;;
9536;SDS011;4807;48.024;11.726;2022-09-25T06:10:38;3.50;;;3.20;;
9536;SDS011;4807;48.024;11.726;2022-09-25T06:13:47;4.27;;;3.97;;
9536;SDS011;4807;48.024;11.726;2022-09-25T06:16:59;3.63;;;3.23;;
9536;SDS011;4807;48.024;11.726;2022-09-25T06:20:10;2.90;;;2.70;;
9536;SDS011;4807;48.024;11.726;2022-09-25T06:23:21;3.13;;;2.50;;
9536;SDS011;4807;48.024;11.726;2022-09-25T06:26:31;3.60;;;3.30;;
9536;SDS011;4807;48.024;11.726;2022-09-25T06:29:40;3.93;;;2.53;;
9536;SDS011;4807;48.024;11.726;2022-09-25T06:32:50;2.40;;;2.20;;
9536;SDS011;4807;48.024;11.726;2022-09-25T06:36:05;3.37;;;2.47;;
9536;SDS011;4807;48.024;11.726;2022-09-25T06:39:13;3.23;;;2.93;;
9536;SDS011;4807;48.024;11.726;2022-09-25T06:42:25;4.07;;;3.77;;
9536;SDS011;4807;48.024;11.726;2022-09-25T06:45:33;3.83;;;3.53;;
9536;SDS011;4807;48.024;11.726;2022-09-25T06:48:49;3.00;;;2.70;;
9536;SDS011;4807;48.024;11.726;2022-09-25T06:52:00;2.30;;;2.20;;
9536;SDS011;4807;48.024;11.726;2022-09-25T06:55:10;2.43;;;2.07;;
9536;SDS011;4807;48.024;11.726;2022-09-25T06:58:25;3.33;;;2.13;;
9536;SDS011;4807;48.024;11.726;2022-09-25T07:01:36;2.13;;;2.03;;
9536;SDS011;4807;48.024;11.726;2022-09-25T07:04:44;1.97;;;1.87;;
9536;SDS011;4807;48.024;11.726;2022-09-25T07:07:54;2.07;;;1.97;;
9536;SDS011;4807;48.024;11.726;2022-09-25T07:11:02;1.87;;;1.77;;
9536;SDS011;4807;48.024;11.726;2022-09-25T07:14:11;1.53;;;1.43;;
9536;SDS011;4807;48.024;11.726;2022-09-25T07:17:19;2.03;;;1.93;;
9536;SDS011;4807;48.024;11.726;2022-09-25T07:20:27;1.90;;;1.80;;
9536;SDS011;4807;48.024;11.726;2022-09-25T07:23:39;1.70;;;1.60;;
9536;SDS011;4807;48.024;11.726;2022-09-25T07:26:48;1.60;;;1.50;;
9536;SDS011;4807;48.024;11.726;2022-09-25T07:29:58;1.70;;;1.60;;
9536;SDS011;4807;48.024;11.726;2022-09-25T07:33:07;1.70;;;1.60;;
9536;SDS011;4807;48.024;11.726;2022-09-25T07:36:17;2.20;;;2.00;;
9536;SDS011;4807;48.024;11.726;2022-09-25T07:39:26;1.73;;;1.63;;
9536;SDS011;4807;48.024;11.726;2022-09-25T07:42:34;1.87;;;1.77;;
9536;SDS011;4807;48.024;11.726;2022-09-25T07:45:47;2.17;;;1.80;;
9536;SDS011;4807;48.024;11.726;2022-09-25T07:48:59;1.90;;;1.80;;
9536;SDS011;4807;48.024;11.726;2022-09-25T07:52:07;2.43;;;2.23;;
9536;SDS011;4807;48.024;11.726;2022-09-25T07:55:17;2.80;;;2.60;;
9536;SDS011;4807;48.024;11.726;2022-09-25T07:58:26;3.63;;;3.13;;
9536;SDS011;4807;48.024;11.726;2022-09-25T08:01:35;4.73;;;2.90;;
9536;SDS011;4807;48.024;11.726;2022-09-25T08:04:50;3.77;;;3.20;;
9536;SDS011;4807;48.024;11.726;2022-09-25T08:07:59;3.10;;;2.90;;
9536;SDS011;4807;48.024;11.726;2022-09-25T08:11:10;3.30;;;3.00;;
9536;SDS011;4807;48.024;11.726;2022-09-25T08:14:22;2.93;;;2.73;;
9536;SDS011;4807;48.024;11.726;2022-09-25T08:17:32;3.20;;;2.93;;
9536;SDS011;4807;48.024;11.726;2022-09-25T08:20:42;3.47;;;3.17;;
9536;SDS011;4807;48.024;11.726;2022-09-25T08:23:53;3.90;;;3.60;;
9536;SDS011;4807;48.024;11.726;2022-09-25T08:27:05;3.87;;;3.57;;
9536;SDS011;4807;48.024;11.726;2022-09-25T08:30:13;4.30;;;3.87;;
9536;SDS011;4807;48.024;11.726;2022-09-25T08:33:22;4.47;;;4.07;;
9536;SDS011;4807;48.024;11.726;2022-09-25T08:36:31;5.53;;;4.10;;
9536;SDS011;4807;48.024;11.726;2022-09-25T08:39:39;4.57;;;4.17;;
9536;SDS011;4807;48.024;11.726;2022-09-25T08:42:49;4.40;;;4.00;;
9536;SDS011;4807;48.024;11.726;2022-09-25T08:46:03;5.17;;;4.27;;
9536;SDS011;4807;48.024;11.726;2022-09-25T08:49:38;4.17;;;3.77;;
9536;SDS011;4807;48.024;11.726;2022-09-25T08:52:56;4.77;;;4.10;;
9536;SDS011;4807;48.024;11.726;2022-09-25T08:56:14;5.33;;;4.10;;
9536;SDS011;4807;48.024;11.726;2022-09-25T08:59:29;5.30;;;4.80;;
9536;SDS011;4807;48.024;11.726;2022-09-25T09:02:44;5.20;;;4.80;;
9536;SDS011;4807;48.024;11.726;2022-09-25T09:06:00;5.50;;;4.97;;
9536;SDS011;4807;48.024;11.726;2022-09-25T09:09:13;6.23;;;5.67;;
9536;SDS011;4807;48.024;11.726;2022-09-25T09:12:32;8.33;;;6.67;;
9536;SDS011;4807;48.024;11.726;2022-09-25T09:15:48;7.27;;;6.57;;
9536;SDS011;4807;48.024;11.726;2022-09-25T09:19:04;7.03;;;6.33;;
9536;SDS011;4807;48.024;11.726;2022-09-25T09:22:15;6.53;;;5.90;;
9536;SDS011;4807;48.024;11.726;2022-09-25T09:25:33;7.07;;;6.37;;
9536;SDS011;4807;48.024;11.726;2022-09-25T09:32:36;5.83;;;5.27;;
9536;SDS011;4807;48.024;11.726;2022-09-25T09:36:08;6.43;;;5.83;;
9536;SDS011;4807;48.024;11.726;2022-09-25T09:39:27;6.03;;;5.50;;
9536;SDS011;4807;48.024;11.726;2022-09-25T09:42:44;5.53;;;5.03;;
9536;SDS011;4807;48.024;11.726;2022-09-25T09:46:05;5.80;;;5.23;;
9536;SDS011;4807;48.024;11.726;2022-09-25T09:49:26;7.93;;;6.40;;
9536;SDS011;4807;48.024;11.726;2022-09-25T09:52:43;6.33;;;5.77;;
9536;SDS011;4807;48.024;11.726;2022-09-25T09:55:58;7.67;;;6.30;;
9536;SDS011;4807;48.024;11.726;2022-09-25T09:59:15;7.00;;;6.33;;
9536;SDS011;4807;48.024;11.726;2022-09-25T10:02:29;7.83;;;7.10;;
9536;SDS011;4807;48.024;11.726;2022-09-25T10:05:48;7.33;;;6.63;;
9536;SDS011;4807;48.024;11.726;2022-09-25T10:09:03;7.40;;;6.70;;
9536;SDS011;4807;48.024;11.726;2022-09-25T10:12:14;5.93;;;5.50;;
9536;SDS011;4807;48.024;11.726;2022-09-25T10:15:35;6.67;;;5.70;;
9536;SDS011;4807;48.024;11.726;2022-09-25T10:18:53;7.40;;;6.53;;
9536;SDS011;4807;48.024;11.726;2022-09-25T10:22:12;6.43;;;5.80;;
9536;SDS011;4807;48.024;11.726;2022-09-25T10:25:34;6.90;;;5.80;;
9536;SDS011;4807;48.024;11.726;2022-09-25T10:28:45;6.30;;;5.70;;
9536;SDS011;4807;48.024;11.726;2022-09-25T10:31:56;6.23;;;5.63;;
9536;SDS011;4807;48.024;11.726;2022-09-25T10:35:11;6.13;;;5.57;;
9536;SDS011;4807;48.024;11.726;2022-09-25T10:38:42;6.10;;;5.50;;
9536;SDS011;4807;48.024;11.726;2022-09-25T10:42:04;6.93;;;6.33;;
9536;SDS011;4807;48.024;11.726;2022-09-25T10:45:39;7.03;;;6.33;;
9536;SDS011;4807;48.024;11.726;2022-09-25T10:52:44;6.90;;;6.20;;
9536;SDS011;4807;48.024;11.726;2022-09-25T10:56:00;7.30;;;6.20;;
9536;SDS011;4807;48.024;11.726;2022-09-25T10:59:16;6.70;;;5.93;;
9536;SDS011;4807;48.024;11.726;2022-09-25T11:02:30;5.73;;;5.23;;
9536;SDS011;4807;48.024;11.726;2022-09-25T11:05:46;7.37;;;6.77;;
9536;SDS011;4807;48.024;11.726;2022-09-25T11:09:04;7.43;;;6.73;;
9536;SDS011;4807;48.024;11.726;2022-09-25T11:12:22;5.97;;;5.47;;
9536;SDS011;4807;48.024;11.726;2022-09-25T11:15:34;6.27;;;5.70;;
9536;SDS011;4807;48.024;11.726;2022-09-25T11:18:45;6.43;;;5.93;;
9536;SDS011;4807;48.024;11.726;2022-09-25T11:21:59;6.27;;;5.67;;
9536;SDS011;4807;48.024;11.726;2022-09-25T11:25:20;6.30;;;5.80;;
9536;SDS011;4807;48.024;11.726;2022-09-25T11:28:42;6.13;;;5.10;;
9536;SDS011;4807;48.024;11.726;2022-09-25T11:31:59;5.40;;;5.00;;
9536;SDS011;4807;48.024;11.726;2022-09-25T11:35:32;4.83;;;4.43;;
9536;SDS011;4807;48.024;11.726;2022-09-25T11:38:52;5.40;;;4.97;;
9536;SDS011;4807;48.024;11.726;2022-09-25T11:42:23;5.73;;;5.27;;
9536;SDS011;4807;48.024;11.726;2022-09-25T11:45:41;4.50;;;4.10;;
9536;SDS011;4807;48.024;11.726;2022-09-25T11:48:59;4.90;;;4.50;;
9536;SDS011;4807;48.024;11.726;2022-09-25T11:56:08;4.90;;;4.50;;
9536;SDS011;4807;48.024;11.726;2022-09-25T11:59:37;6.00;;;5.17;;
9536;SDS011;4807;48.024;11.726;2022-09-25T12:03:17;5.47;;;4.93;;
9536;SDS011;4807;48.024;11.726;2022-09-25T12:06:47;5.30;;;4.80;;
9536;SDS011;4807;48.024;11.726;2022-09-25T12:10:13;4.30;;;4.00;;
9536;SDS011;4807;48.024;11.726;2022-09-25T12:13:36;6.50;;;4.03;;
9536;SDS011;4807;48.024;11.726;2022-09-25T12:16:57;4.23;;;3.83;;
9536;SDS011;4807;48.024;11.726;2022-09-25T12:20:18;4.03;;;3.73;;
9536;SDS011;4807;48.024;11.726;2022-09-25T12:23:41;4.97;;;4.47;;
9536;SDS011;4807;48.024;11.726;2022-09-25T12:27:07;4.33;;;3.93;;
9536;SDS011;4807;48.024;11.726;2022-09-25T12:30:30;4.33;;;3.23;;
9536;SDS011;4807;48.024;11.726;2022-09-25T12:34:04;5.20;;;4.57;;
9536;SDS011;4807;48.024;11.726;2022-09-25T12:37:34;5.87;;;5.27;;
9536;SDS011;4807;48.024;11.726;2022-09-25T12:40:53;5.07;;;4.63;;
9536;SDS011;4807;48.024;11.726;2022-09-25T12:44:14;5.13;;;4.63;;
9536;SDS011;4807;48.024;11.726;2022-09-25T12:47:33;5.77;;;4.73;;
9536;SDS011;4807;48.024;11.726;2022-09-25T12:50:49;5.20;;;4.73;;
9536;SDS011;4807;48.024;11.726;2022-09-25T12:54:14;5.60;;;5.10;;
9536;SDS011;4807;48.024;11.726;2022-09-25T12:57:34;6.00;;;5.40;;
9536;SDS011;4807;48.024;11.726;2022-09-25T13:00:54;5.67;;;5.13;;
9536;SDS011;4807;48.024;11.726;2022-09-25T13:04:26;5.93;;;5.40;;
9536;SDS011;4807;48.024;11.726;2022-09-25T13:07:51;6.10;;;5.50;;
9536;SDS011;4807;48.024;11.726;2022-09-25T13:11:25;6.50;;;5.90;;
9536;SDS011;4807;48.024;11.726;2022-09-25T13:14:50;6.07;;;5.57;;
9536;SDS011;4807;48.024;11.726;2022-09-25T13:18:05;6.07;;;5.50;;
9536;SDS011;4807;48.024;11.726;2022-09-25T13:21:23;6.93;;;6.17;;
9536;SDS011;4807;48.024;11.726;2022-09-25T13:24:38;8.00;;;7.10;;
9536;SDS011;4807;48.024;11.726;2022-09-25T13:27:53;8.13;;;7.33;;
9536;SDS011;4807;48.024;11.726;2022-09-25T13:31:20;4.47;;;4.00;;
9536;SDS011;4807;48.024;11.726;2022-09-25T13:34:32;4.77;;;2.90;;
9536;SDS011;4807;48.024;11.726;2022-09-25T13:37:46;4.27;;;2.77;;
9536;SDS011;4807;48.024;11.726;2022-09-25T13:40:57;4.27;;;3.87;;
9536;SDS011;4807;48.024;11.726;2022-09-25T13:48:12;4.50;;;3.60;;
9536;SDS011;4807;48.024;11.726;2022-09-25T13:51:42;4.97;;;4.07;;
9536;SDS011;4807;48.024;11.726;2022-09-25T13:54:52;6.77;;;4.17;;
9536;SDS011;4807;48.024;11.726;2022-09-25T13:58:26;4.77;;;4.37;;
9536;SDS011;4807;48.024;11.726;2022-09-25T14:01:39;5.33;;;4.83;;
9536;SDS011;4807;48.024;11.726;2022-09-25T14:04:49;5.57;;;4.73;;
9536;SDS011;4807;48.024;11.726;2022-09-25T14:07:59;5.67;;;5.17;;
9536;SDS011;4807;48.024;11.726;2022-09-25T14:11:14;6.13;;;5.53;;
9536;SDS011;4807;48.024;11.726;2022-09-25T14:14:30;8.33;;;6.83;;
9536;SDS011;4807;48.024;11.726;2022-09-25T14:17:59;8.40;;;7.57;;
9536;SDS011;4807;48.024;11.726;2022-09-25T14:21:13;8.23;;;7.43;;
9536;SDS011;4807;48.024;11.726;2022-09-25T14:24:26;10.37;;;8.60;;
9536;SDS011;4807;48.024;11.726;2022-09-25T14:27:37;10.03;;;8.83;;
9536;SDS011;4807;48.024;11.726;2022-09-25T14:30:47;10.80;;;9.67;;
9536;SDS011;4807;48.024;11.726;2022-09-25T14:34:06;10.67;;;9.57;;
9536;SDS011;4807;48.024;11.726;2022-09-25T14:37:42;11.10;;;9.87;;
9536;SDS011;4807;48.024;11.726;2022-09-25T14:41:17;10.73;;;9.63;;
9536;SDS011;4807;48.024;11.726;2022-09-25T14:44:59;11.97;;;9.97;;
9536;SDS011;4807;48.024;11.726;2022-09-25T14:48:38;13.97;;;10.00;;
9536;SDS011;4807;48.024;11.726;2022-09-25T14:51:54;10.80;;;9.60;;
9536;SDS011;4807;48.024;11.726;2022-09-25T14:55:09;10.63;;;9.53;;
9536;SDS011;4807;48.024;11.726;2022-09-25T14:58:27;11.20;;;9.73;;
9536;SDS011;4807;48.024;11.726;2022-09-25T15:01:43;10.90;;;9.70;;
9536;SDS011;4807;48.024;11.726;2022-09-25T15:04:56;15.07;;;10.23;;
9536;SDS011;4807;48.024;11.726;2022-09-25T15:08:18;11.73;;;9.93;;
9536;SDS011;4807;48.024;11.726;2022-09-25T15:11:37;10.53;;;9.47;;
9536;SDS011;4807;48.024;11.726;2022-09-25T15:14:58;11.03;;;9.03;;
9536;SDS011;4807;48.024;11.726;2022-09-25T15:18:13;11.47;;;9.43;;
9536;SDS011;4807;48.024;11.726;2022-09-25T15:21:25;11.00;;;9.80;;
9536;SDS011;4807;48.024;11.726;2022-09-25T15:24:42;11.97;;;9.60;;
9536;SDS011;4807;48.024;11.726;2022-09-25T15:27:57;9.50;;;8.60;;
9536;SDS011;4807;48.024;11.726;2022-09-25T15:31:07;9.97;;;8.17;;
9536;SDS011;4807;48.024;11.726;2022-09-25T15:34:19;8.87;;;7.93;;
9536;SDS011;4807;48.024;11.726;2022-09-25T15:37:30;9.60;;;7.60;;
9536;SDS011;4807;48.024;11.726;2022-09-25T15:40:40;8.10;;;7.17;;
9536;SDS011;4807;48.024;11.726;2022-09-25T15:43:49;10.30;;;8.03;;
9536;SDS011;4807;48.024;11.726;2022-09-25T15:46:58;9.20;;;8.03;;
9536;SDS011;4807;48.024;11.726;2022-09-25T15:50:12;8.97;;;7.73;;
9536;SDS011;4807;48.024;11.726;2022-09-25T15:53:29;8.40;;;7.60;;
9536;SDS011;4807;48.024;11.726;2022-09-25T15:56:44;8.30;;;7.43;;
9536;SDS011;4807;48.024;11.726;2022-09-25T16:00:03;10.63;;;7.63;;
9536;SDS011;4807;48.024;11.726;2022-09-25T16:03:32;9.27;;;8.00;;
9536;SDS011;4807;48.024;11.726;2022-09-25T16:06:58;13.00;;;10.63;;
9536;SDS011;4807;48.024;11.726;2022-09-25T16:13:41;13.37;;;11.17;;
9536;SDS011;4807;48.024;11.726;2022-09-25T16:16:54;17.83;;;12.83;;
9536;SDS011;4807;48.024;11.726;2022-09-25T16:20:06;11.53;;;10.07;;
9536;SDS011;4807;48.024;11.726;2022-09-25T16:23:36;11.03;;;8.57;;
9536;SDS011;4807;48.024;11.726;2022-09-25T16:26:51;12.97;;;10.00;;
9536;SDS011;4807;48.024;11.726;2022-09-25T16:30:05;12.30;;;10.97;;
9536;SDS011;4807;48.024;11.726;2022-09-25T16:33:24;11.40;;;9.77;;
9536;SDS011;4807;48.024;11.726;2022-09-25T16:36:38;13.80;;;10.57;;
9536;SDS011;4807;48.024;11.726;2022-09-25T16:43:30;14.00;;;11.53;;
9536;SDS011;4807;48.024;11.726;2022-09-25T16:46:43;16.10;;;12.47;;
9536;SDS011;4807;48.024;11.726;2022-09-25T16:49:57;18.47;;;13.20;;
9536;SDS011;4807;48.024;11.726;2022-09-25T16:53:06;19.00;;;13.57;;
9536;SDS011;4807;48.024;11.726;2022-09-25T16:56:18;17.83;;;13.33;;
9536;SDS011;4807;48.024;11.726;2022-09-25T16:59:31;15.40;;;12.70;;
9536;SDS011;4807;48.024;11.726;2022-09-25T17:02:41;18.30;;;14.33;;
9536;SDS011;4807;48.024;11.726;2022-09-25T17:05:52;15.50;;;13.03;;
9536;SDS011;4807;48.024;11.726;2022-09-25T17:09:04;15.23;;;13.23;;
9536;SDS011;4807;48.024;11.726;2022-09-25T17:12:18;11.83;;;10.47;;
9536;SDS011;4807;48.024;11.726;2022-09-25T17:15:31;19.23;;;14.73;;
9536;SDS011;4807;48.024;11.726;2022-09-25T17:18:49;10.60;;;9.50;;
9536;SDS011;4807;48.024;11.726;2022-09-25T17:22:01;13.97;;;11.37;;
9536;SDS011;4807;48.024;11.726;2022-09-25T17:25:17;12.97;;;11.10;;
9536;SDS011;4807;48.024;11.726;2022-09-25T17:28:44;12.87;;;11.50;;
9536;SDS011;4807;48.024;11.726;2022-09-25T17:31:52;11.70;;;10.50;;
9536;SDS011;4807;48.024;11.726;2022-09-25T17:35:03;11.83;;;10.73;;
9536;SDS011;4807;48.024;11.726;2022-09-25T17:38:37;13.10;;;11.70;;
9536;SDS011;4807;48.024;11.726;2022-09-25T17:41:47;14.07;;;12.60;;
9536;SDS011;4807;48.024;11.726;2022-09-25T17:44:55;11.27;;;10.17;;
9536;SDS011;4807;48.024;11.726;2022-09-25T17:48:04;10.83;;;9.60;;
9536;SDS011;4807;48.024;11.726;2022-09-25T17:51:15;10.70;;;9.60;;
9536;SDS011;4807;48.024;11.726;2022-09-25T17:54:26;13.33;;;9.93;;
9536;SDS011;4807;48.024;11.726;2022-09-25T17:57:35;11.63;;;10.43;;
9536;SDS011;4807;48.024;11.726;2022-09-25T18:00:43;10.10;;;9.03;;
9536;SDS011;4807;48.024;11.726;2022-09-25T18:03:52;12.30;;;10.77;;
9536;SDS011;4807;48.024;11.726;2022-09-25T18:07:05;11.10;;;9.40;;
9536;SDS011;4807;48.024;11.726;2022-09-25T18:10:13;10.53;;;9.53;;
9536;SDS011;4807;48.024;11.726;2022-09-25T18:13:23;11.53;;;9.53;;
9536;SDS011;4807;48.024;11.726;2022-09-25T18:16:32;12.40;;;10.57;;
9536;SDS011;4807;48.024;11.726;2022-09-25T18:19:40;12.47;;;11.00;;
9536;SDS011;4807;48.024;11.726;2022-09-25T18:23:23;11.00;;;9.90;;
9536;SDS011;4807;48.024;11.726;2022-09-25T18:26:32;11.60;;;10.50;;
9536;SDS011;4807;48.024;11.726;2022-09-25T18:29:41;11.90;;;9.97;;
9536;SDS011;4807;48.024;11.726;2022-09-25T18:32:51;13.67;;;10.47;;
9536;SDS011;4807;48.024;11.726;2022-09-25T18:36:00;13.50;;;10.00;;
9536;SDS011;4807;48.024;11.726;2022-09-25T18:39:10;10.87;;;9.43;;
9536;SDS011;4807;48.024;11.726;2022-09-25T18:42:25;10.53;;;9.40;;
9536;SDS011;4807;48.024;11.726;2022-09-25T18:45:33;10.57;;;9.30;;
9536;SDS011;4807;48.024;11.726;2022-09-25T18:48:43;8.70;;;7.90;;
9536;SDS011;4807;48.024;11.726;2022-09-25T18:51:53;11.00;;;8.70;;
9536;SDS011;4807;48.024;11.726;2022-09-25T18:55:04;9.03;;;8.13;;
9536;SDS011;4807;48.024;11.726;2022-09-25T18:58:13;8.27;;;7.40;;
9536;SDS011;4807;48.024;11.726;2022-09-25T19:01:21;8.17;;;6.93;;
9536;SDS011;4807;48.024;11.726;2022-09-25T19:04:30;7.53;;;6.47;;
9536;SDS011;4807;48.024;11.726;2022-09-25T19:07:43;7.23;;;6.63;;
9536;SDS011;4807;48.024;11.726;2022-09-25T19:10:56;6.47;;;5.87;;
9536;SDS011;4807;48.024;11.726;2022-09-25T19:14:06;7.33;;;6.37;;
9536;SDS011;4807;48.024;11.726;2022-09-25T19:17:16;5.83;;;4.97;;
9536;SDS011;4807;48.024;11.726;2022-09-25T19:20:26;4.83;;;4.37;;
9536;SDS011;4807;48.024;11.726;2022-09-25T19:23:34;4.90;;;4.50;;
9536;SDS011;4807;48.024;11.726;2022-09-25T19:26:45;6.27;;;5.43;;
9536;SDS011;4807;48.024;11.726;2022-09-25T19:29:54;4.80;;;4.30;;
9536;SDS011;4807;48.024;11.726;2022-09-25T19:33:03;6.47;;;4.67;;
9536;SDS011;4807;48.024;11.726;2022-09-25T19:36:13;4.40;;;4.03;;
9536;SDS011;4807;48.024;11.726;2022-09-25T19:39:25;4.27;;;3.87;;
9536;SDS011;4807;48.024;11.726;2022-09-25T19:42:35;4.30;;;3.90;;
9536;SDS011;4807;48.024;11.726;2022-09-25T19:45:47;4.03;;;3.63;;
9536;SDS011;4807;48.024;11.726;2022-09-25T19:48:57;4.87;;;4.40;;
9536;SDS011;4807;48.024;11.726;2022-09-25T19:52:06;4.57;;;4.13;;
9536;SDS011;4807;48.024;11.726;2022-09-25T19:55:15;4.73;;;4.33;;
9536;SDS011;4807;48.024;11.726;2022-09-25T19:58:25;4.23;;;3.83;;
9536;SDS011;4807;48.024;11.726;2022-09-25T20:01:44;4.03;;;3.63;;
9536;SDS011;4807;48.024;11.726;2022-09-25T20:04:53;4.07;;;3.43;;
9536;SDS011;4807;48.024;11.726;2022-09-25T20:08:02;4.17;;;3.80;;